createdAt,value
2022-10-28T00:00:12.516Z,298.99
2022-10-28T00:05:19.755Z,299.01
2022-10-28T00:10:26.958Z,298.92
2022-10-28T00:15:34.213Z,299.44
2022-10-28T00:20:41.633Z,299.65
2022-10-28T00:25:48.883Z,299.20
2022-10-28T00:30:56.133Z,299.38
2022-10-28T00:36:04.431Z,299.69
2022-10-28T00:41:10.497Z,300.50
2022-10-28T00:46:17.930Z,300.72
2022-10-28T00:51:25.114Z,301.06
2022-10-28T00:56:32.316Z,301.52
2022-10-28T01:01:39.712Z,301.49
2022-10-28T01:06:46.717Z,301.94
2022-10-28T01:11:53.946Z,301.44
2022-10-28T01:17:01.139Z,302.19
2022-10-28T01:22:08.341Z,301.56
2022-10-28T01:27:15.566Z,302.20
2022-10-28T01:32:22.799Z,303.29
2022-10-28T01:37:29.970Z,303.03
2022-10-28T01:42:37.176Z,303.12
2022-10-28T01:47:44.493Z,303.18
2022-10-28T01:52:52.064Z,302.01
2022-10-28T01:57:58.873Z,302.19
2022-10-28T02:03:06.130Z,302.86
2022-10-28T02:08:13.320Z,302.91
2022-10-28T02:13:20.502Z,303.34
2022-10-28T02:18:27.778Z,303.61
2022-10-28T02:23:34.998Z,304.20
2022-10-28T02:28:42.313Z,303.81
2022-10-28T02:33:49.600Z,304.70
2022-10-28T02:38:56.734Z,304.94
2022-10-28T02:44:03.917Z,304.72
2022-10-28T02:49:11.172Z,304.46
2022-10-28T02:54:18.340Z,304.65
2022-10-28T02:59:25.525Z,305.37
2022-10-28T03:04:32.801Z,304.51
2022-10-28T03:09:39.944Z,304.20
2022-10-28T03:14:47.113Z,303.98
2022-10-28T03:19:54.384Z,303.60
2022-10-28T03:25:01.519Z,303.21
2022-10-28T03:30:08.691Z,303.33
2022-10-28T03:35:16.063Z,303.59
2022-10-28T03:40:23.074Z,303.37
2022-10-28T03:50:37.522Z,304.44
2022-10-28T03:55:44.679Z,304.52
2022-10-28T04:00:51.945Z,304.69
2022-10-28T04:05:59.124Z,305.44
2022-10-28T04:11:06.302Z,304.57
2022-10-28T04:16:13.603Z,304.28
2022-10-28T04:21:20.812Z,304.05
2022-10-28T04:26:27.966Z,303.77
2022-10-28T04:31:35.143Z,304.28
2022-10-28T04:36:42.347Z,304.45
2022-10-28T04:41:49.542Z,304.61
2022-10-28T04:46:56.738Z,304.37
2022-10-28T04:52:04.055Z,304.14
2022-10-28T04:57:11.126Z,304.70
2022-10-28T05:02:18.558Z,305.11
2022-10-28T05:07:25.569Z,305.06
2022-10-28T05:12:32.809Z,304.84
2022-10-28T05:17:40.055Z,305.18
2022-10-28T05:22:47.278Z,305.11
2022-10-28T05:27:54.499Z,305.56
2022-10-28T05:33:02.255Z,305.63
2022-10-28T05:38:08.936Z,305.38
2022-10-28T05:43:16.089Z,305.40
2022-10-28T05:48:23.302Z,305.70
2022-10-28T05:53:30.625Z,305.67
2022-10-28T05:58:37.869Z,305.41
2022-10-28T06:03:45.039Z,304.63
2022-10-28T06:08:52.246Z,305.33
2022-10-28T06:13:57.882Z,305.57
2022-10-28T06:19:05.143Z,305.13
2022-10-28T06:24:12.438Z,304.20
2022-10-28T06:29:19.583Z,303.94
2022-10-28T06:34:26.761Z,304.10
2022-10-28T06:39:33.975Z,304.41
2022-10-28T06:44:41.231Z,303.37
2022-10-28T06:49:49.965Z,303.06
2022-10-28T06:54:57.121Z,303.26
2022-10-28T07:00:04.303Z,302.69
2022-10-28T07:05:11.511Z,303.22
2022-10-28T07:10:18.784Z,302.14
2022-10-28T07:15:26.041Z,301.29
2022-10-28T07:20:33.246Z,300.88
2022-10-28T07:25:40.621Z,301.03
2022-10-28T07:30:47.657Z,300.78
2022-10-28T07:35:54.857Z,299.74
2022-10-28T07:41:02.047Z,299.87
2022-10-28T07:46:09.296Z,300.44
2022-10-28T07:51:16.431Z,300.96
2022-10-28T07:56:23.656Z,300.94
2022-10-28T08:01:30.988Z,299.80
2022-10-28T08:06:38.044Z,300.13
2022-10-28T08:11:45.194Z,299.84
2022-10-28T08:16:52.467Z,299.65
2022-10-28T08:21:59.672Z,299.04
2022-10-28T08:27:06.826Z,298.81
2022-10-28T08:32:14.064Z,298.34
2022-10-28T08:37:21.380Z,298.60
2022-10-28T08:42:28.485Z,299.54
2022-10-28T08:47:35.768Z,299.39
2022-10-28T08:52:42.971Z,299.51
2022-10-28T08:57:50.178Z,300.54
2022-10-28T09:02:57.531Z,299.85
2022-10-28T09:08:04.588Z,300.58
2022-10-28T09:13:12.168Z,300.98
2022-10-28T09:18:19.441Z,300.96
2022-10-28T09:23:26.595Z,301.86
2022-10-28T09:28:33.812Z,301.99
2022-10-28T09:33:41.007Z,302.16
2022-10-28T09:38:48.978Z,302.04
2022-10-28T09:43:56.249Z,302.06
2022-10-28T09:49:03.502Z,301.87
2022-10-28T09:54:10.936Z,303.08
2022-10-28T09:59:18.122Z,301.40
2022-10-28T10:04:25.379Z,300.26
2022-10-28T10:09:32.589Z,299.94
2022-10-28T10:14:39.793Z,299.79
2022-10-28T10:19:50.381Z,300.39
2022-10-28T10:24:54.296Z,300.74
2022-10-28T10:30:01.468Z,300.61
2022-10-28T10:35:08.670Z,300.85
2022-10-28T10:40:15.882Z,300.97
2022-10-28T10:45:23.078Z,302.09
2022-10-28T10:55:37.480Z,303.23
2022-10-28T11:00:44.625Z,303.72
2022-10-28T11:06:05.484Z,304.13
2022-10-28T11:10:59.079Z,305.06
2022-10-28T11:16:06.245Z,305.19
2022-10-28T11:21:13.527Z,305.37
2022-10-28T11:26:20.772Z,305.64
2022-10-28T11:31:27.957Z,306.07
2022-10-28T11:36:35.248Z,305.64
2022-10-28T11:41:45.224Z,305.84
2022-10-28T11:46:52.375Z,306.44
2022-10-28T11:51:59.622Z,306.83
2022-10-28T11:57:06.799Z,306.43
2022-10-28T12:02:14.324Z,306.02
2022-10-28T12:07:21.259Z,306.95
2022-10-28T12:12:28.436Z,306.77
2022-10-28T12:17:35.686Z,306.89
2022-10-28T12:22:42.898Z,307.09
2022-10-28T12:27:50.090Z,306.82
2022-10-28T12:32:57.484Z,307.86
2022-10-28T12:38:04.582Z,307.44
2022-10-28T12:43:11.753Z,307.87
2022-10-28T12:48:18.961Z,308.11
2022-10-28T12:53:26.214Z,308.25
2022-10-28T12:58:33.399Z,308.70
2022-10-28T13:03:40.635Z,308.36
2022-10-28T13:08:47.959Z,309.03
2022-10-28T13:13:55.197Z,309.19
2022-10-28T13:19:02.395Z,309.49
2022-10-28T13:24:09.723Z,309.74
2022-10-28T13:29:16.867Z,310.19
2022-10-28T13:34:26.415Z,310.97
2022-10-28T13:39:33.772Z,310.85
2022-10-28T13:44:40.957Z,311.68
2022-10-28T13:49:48.414Z,311.61
2022-10-28T13:54:55.699Z,311.86
2022-10-28T14:00:02.912Z,311.61
2022-10-28T14:05:10.165Z,311.64
2022-10-28T14:10:20.499Z,312.28
2022-10-28T14:15:24.550Z,311.55
2022-10-28T14:20:31.756Z,311.87
2022-10-28T14:25:38.960Z,311.51
2022-10-28T14:30:46.590Z,311.32
2022-10-28T14:35:53.395Z,311.38
2022-10-28T14:41:00.594Z,310.87
2022-10-28T14:46:07.798Z,310.56
2022-10-28T14:51:14.931Z,311.14
2022-10-28T15:01:29.485Z,310.71
2022-10-28T15:06:36.528Z,310.35
2022-10-28T15:11:43.716Z,310.29
2022-10-28T15:16:50.971Z,310.29
2022-10-28T15:21:59.356Z,310.28
2022-10-28T15:27:05.350Z,310.11
2022-10-28T15:32:12.560Z,310.02
2022-10-28T15:37:19.960Z,310.40
2022-10-28T15:42:27.206Z,309.88
2022-10-28T15:47:34.336Z,310.19
2022-10-28T15:52:41.561Z,309.91
2022-10-28T15:57:48.758Z,309.72
2022-10-28T16:02:56.613Z,309.68
2022-10-28T16:08:03.161Z,309.43
2022-10-28T16:13:11.648Z,309.36
2022-10-28T16:18:17.556Z,308.80
2022-10-28T16:23:24.763Z,308.59
2022-10-28T16:28:32.019Z,307.79
2022-10-28T16:33:39.181Z,307.05
2022-10-28T16:38:46.371Z,306.92
2022-10-28T16:43:53.656Z,306.70
2022-10-28T16:49:00.801Z,306.22
2022-10-28T16:54:08.074Z,306.30
2022-10-28T16:59:15.443Z,306.22
2022-10-28T17:04:22.662Z,306.14
2022-10-28T17:09:29.957Z,306.22
2022-10-28T17:14:37.273Z,306.70
2022-10-28T17:19:44.656Z,306.88
2022-10-28T17:24:52.137Z,306.44
2022-10-28T17:30:00.006Z,306.45
2022-10-28T17:35:07.275Z,306.44
2022-10-28T17:40:15.285Z,306.73
2022-10-28T17:45:22.719Z,306.31
2022-10-28T17:50:30.050Z,306.54
2022-10-28T17:55:37.574Z,306.23
2022-10-28T18:00:45.053Z,306.02
2022-10-28T18:05:52.495Z,305.79
2022-10-28T18:10:59.675Z,306.47
2022-10-28T18:16:06.869Z,306.11
2022-10-28T18:21:14.364Z,306.25
2022-10-28T18:26:22.278Z,306.80
2022-10-28T18:31:29.816Z,306.67
2022-10-28T18:36:37.405Z,306.54
2022-10-28T18:41:45.023Z,305.95
2022-10-28T18:46:52.460Z,306.07
2022-10-28T18:52:00.048Z,306.16
2022-10-28T18:57:07.372Z,305.65
2022-10-28T19:02:14.803Z,305.09
2022-10-28T19:07:21.777Z,305.14
2022-10-28T19:12:29.004Z,304.79
2022-10-28T19:17:36.218Z,304.34
2022-10-28T19:22:43.515Z,304.37
2022-10-28T19:27:51.796Z,304.05
2022-10-28T19:32:59.268Z,304.17
2022-10-28T19:38:06.577Z,304.12
2022-10-28T19:43:13.897Z,303.39
2022-10-28T19:48:21.371Z,302.72
2022-10-28T19:53:28.561Z,303.70
2022-10-28T19:58:35.761Z,303.61
2022-10-28T20:03:48.783Z,303.67
2022-10-28T20:08:50.283Z,303.20
2022-10-28T20:13:57.558Z,303.61
2022-10-28T20:19:04.744Z,303.64
2022-10-28T20:24:12.186Z,303.51
2022-10-28T20:29:19.490Z,303.19
2022-10-28T20:34:26.739Z,302.69
2022-10-28T20:39:34.022Z,302.45
2022-10-28T20:44:41.211Z,302.17
2022-10-28T20:49:48.488Z,302.15
2022-10-28T20:54:55.651Z,302.66
2022-10-28T21:00:02.916Z,302.82
2022-10-28T21:05:10.195Z,303.14
2022-10-28T21:10:17.351Z,302.89
2022-10-28T21:15:24.550Z,303.40
2022-10-28T21:20:31.743Z,303.07
2022-10-28T21:25:38.913Z,303.09
2022-10-28T21:30:46.074Z,302.78
2022-10-28T21:35:53.315Z,302.82
2022-10-28T21:41:00.470Z,303.32
2022-10-28T21:46:07.677Z,303.03
2022-10-28T21:51:15.508Z,302.93
2022-10-28T21:56:22.102Z,303.69
2022-10-28T22:01:29.371Z,302.67
2022-10-28T22:06:36.587Z,302.78
2022-10-28T22:11:43.701Z,302.58
2022-10-28T22:16:50.898Z,303.07
2022-10-28T22:21:58.136Z,303.81
2022-10-28T22:27:05.311Z,304.03
2022-10-28T22:32:12.455Z,304.31
2022-10-28T22:37:19.718Z,305.23
2022-10-28T22:42:26.949Z,305.24
2022-10-28T22:47:34.131Z,305.22
2022-10-28T22:52:41.375Z,304.76
2022-10-28T22:57:48.578Z,304.90
2022-10-28T23:02:56.170Z,305.44
2022-10-28T23:08:03.150Z,305.72
2022-10-28T23:13:10.327Z,305.50
2022-10-28T23:18:17.583Z,305.77
2022-10-28T23:23:24.784Z,306.52
2022-10-28T23:28:32.010Z,306.51
2022-10-28T23:33:39.178Z,306.96
2022-10-28T23:38:46.561Z,305.83
2022-10-28T23:43:53.794Z,304.99
2022-10-28T23:49:01.088Z,305.08
2022-10-28T23:54:08.279Z,304.84
2022-10-28T23:59:15.509Z,304.53
